Roth, North Dakota
Current Conditions -  °F | °C
As of 9:58 AM on Monday 24 Nov 2014 (Local Time) from KMIB Reporting Station
Clear Clear  
Wind Chill: -22°   Ceiling: Unl
Heat Index: -13°   Visibility: 10mi
Dew Point: -17°   Wind: 14mph
Humidity: 76%   Direction: 310°NW
Pressure: 29.92"   Gusts: NA
Location:  48.9505°N, 100.734°W
Report Text: KMIB 241558Z AUTO 31012KT 10SM CLR M13/M17 A2992 RMK AO2 SLP174 T11321166
Loading
Personal Weather Stations






























Interactive Weather Map New forecast layout! Learn more

10-Day Weather Forecast

Advertisements
Track Severe Weather on mobile